Capitol Logistics 1122


EBLG
Liège Airport
Liege, BE
UBBB
Heydar Aliyev International Airport
Baku, AZ

Route Details

Aircraft Information
Primary: Boeing 767-300BDSF
Backup: Not Available
Route Data
Distance: 1943nm
Sched. Duration: 4h 29m
Avg. Duration: 4h 54m (+25m)
Times Flown: 1
Recm'd Route: Not Available
Planned Altitude: 35,000ft
Origin Wx: EBLG 311250Z 05011KT 020V090 CAVOK 21/02 Q1021 NOSIG
Dest. Wx: UBBB 311300Z 33021G31KT CAVOK 23/15 Q1013 R88/CLRD// NOSIG
Notes:

Financial History
Total Freight: 58,857lbs
Average Load: 58,857lbs/flt
Fuel Used: 46,100lbs
Avg. Fuel Used: 46,100lbs/flt
Fuel Expense: $51,171
Avg. Fuel Expense: $51,171
Avg. Fuel Cost: $1.11/lbs
Total Gross Income: $213,651
Pilot Pay: $259
Total Expenses: $23,126
Total Revenue: $137,982
Average Revenue: $213,650.91